sensor_id;sensor_type;location;lat;lon;timestamp;temperature;humidity
4052;DHT22;2040;50.924;11.604;2023-05-24T00:00:55;9.50;99.90
4052;DHT22;2040;50.924;11.604;2023-05-24T00:03:21;9.40;99.90
4052;DHT22;2040;50.924;11.604;2023-05-24T00:05:47;9.40;99.90
4052;DHT22;2040;50.924;11.604;2023-05-24T00:08:13;9.20;99.90
4052;DHT22;2040;50.924;11.604;2023-05-24T00:10:40;9.10;99.90
4052;DHT22;2040;50.924;11.604;2023-05-24T00:13:06;9.10;99.90
4052;DHT22;2040;50.924;11.604;2023-05-24T00:15:31;9.00;99.90
4052;DHT22;2040;50.924;11.604;2023-05-24T00:17:57;9.00;99.90
4052;DHT22;2040;50.924;11.604;2023-05-24T00:20:22;8.90;99.90
4052;DHT22;2040;50.924;11.604;2023-05-24T00:22:48;8.90;99.90
4052;DHT22;2040;50.924;11.604;2023-05-24T00:25:14;8.80;99.90
4052;DHT22;2040;50.924;11.604;2023-05-24T00:27:39;8.80;99.90
4052;DHT22;2040;50.924;11.604;2023-05-24T00:30:06;8.70;99.90
4052;DHT22;2040;50.924;11.604;2023-05-24T00:32:31;8.70;99.90
4052;DHT22;2040;50.924;11.604;2023-05-24T00:34:57;8.70;99.90
4052;DHT22;2040;50.924;11.604;2023-05-24T00:37:22;8.70;99.90
4052;DHT22;2040;50.924;11.604;2023-05-24T00:39:48;8.80;99.90
4052;DHT22;2040;50.924;11.604;2023-05-24T00:42:13;8.80;99.90
4052;DHT22;2040;50.924;11.604;2023-05-24T00:44:39;8.70;99.90
4052;DHT22;2040;50.924;11.604;2023-05-24T00:47:05;8.70;99.90
4052;DHT22;2040;50.924;11.604;2023-05-24T00:49:30;8.70;99.90
4052;DHT22;2040;50.924;11.604;2023-05-24T00:51:57;8.70;99.90
4052;DHT22;2040;50.924;11.604;2023-05-24T00:54:23;8.70;99.90
4052;DHT22;2040;50.924;11.604;2023-05-24T00:56:50;8.70;99.90
4052;DHT22;2040;50.924;11.604;2023-05-24T00:59:16;8.70;99.90
4052;DHT22;2040;50.924;11.604;2023-05-24T01:01:41;8.70;99.90
4052;DHT22;2040;50.924;11.604;2023-05-24T01:04:07;8.70;99.90
4052;DHT22;2040;50.924;11.604;2023-05-24T01:06:47;8.70;99.90
4052;DHT22;2040;50.924;11.604;2023-05-24T01:09:28;8.70;99.90
4052;DHT22;2040;50.924;11.604;2023-05-24T01:15:06;8.60;99.90
4052;DHT22;2040;50.924;11.604;2023-05-24T01:18:10;8.60;99.90
4052;DHT22;2040;50.924;11.604;2023-05-24T01:20:28;8.50;99.90
4052;DHT22;2040;50.924;11.604;2023-05-24T01:26:18;8.60;99.90
4052;DHT22;2040;50.924;11.604;2023-05-24T01:28:47;8.50;99.90
4052;DHT22;2040;50.924;11.604;2023-05-24T01:31:14;8.50;99.90
4052;DHT22;2040;50.924;11.604;2023-05-24T01:33:41;8.50;99.90
4052;DHT22;2040;50.924;11.604;2023-05-24T01:36:07;8.50;99.90
4052;DHT22;2040;50.924;11.604;2023-05-24T01:38:33;8.50;99.90
4052;DHT22;2040;50.924;11.604;2023-05-24T01:41:06;8.40;99.90
4052;DHT22;2040;50.924;11.604;2023-05-24T01:43:44;8.40;99.90
4052;DHT22;2040;50.924;11.604;2023-05-24T01:46:38;8.30;99.90
4052;DHT22;2040;50.924;11.604;2023-05-24T01:49:19;8.30;99.90
4052;DHT22;2040;50.924;11.604;2023-05-24T01:52:00;8.30;99.90
4052;DHT22;2040;50.924;11.604;2023-05-24T01:54:31;8.30;99.90
4052;DHT22;2040;50.924;11.604;2023-05-24T01:56:58;8.30;99.90
4052;DHT22;2040;50.924;11.604;2023-05-24T01:59:29;8.30;99.90
4052;DHT22;2040;50.924;11.604;2023-05-24T02:01:56;8.30;99.90
4052;DHT22;2040;50.924;11.604;2023-05-24T02:04:22;8.30;99.90
4052;DHT22;2040;50.924;11.604;2023-05-24T02:06:48;8.30;99.90
4052;DHT22;2040;50.924;11.604;2023-05-24T02:09:14;8.30;99.90
4052;DHT22;2040;50.924;11.604;2023-05-24T02:11:39;8.20;99.90
4052;DHT22;2040;50.924;11.604;2023-05-24T02:14:05;8.20;99.90
4052;DHT22;2040;50.924;11.604;2023-05-24T02:16:30;8.10;99.90
4052;DHT22;2040;50.924;11.604;2023-05-24T02:18:56;8.00;99.90
4052;DHT22;2040;50.924;11.604;2023-05-24T02:21:22;8.00;99.90
4052;DHT22;2040;50.924;11.604;2023-05-24T02:23:48;8.00;99.90
4052;DHT22;2040;50.924;11.604;2023-05-24T02:26:14;7.90;99.90
4052;DHT22;2040;50.924;11.604;2023-05-24T02:28:42;7.90;99.90
4052;DHT22;2040;50.924;11.604;2023-05-24T02:31:08;7.90;99.90
4052;DHT22;2040;50.924;11.604;2023-05-24T02:33:33;7.90;99.90
4052;DHT22;2040;50.924;11.604;2023-05-24T02:36:01;7.90;99.90
4052;DHT22;2040;50.924;11.604;2023-05-24T02:38:27;7.90;99.90
4052;DHT22;2040;50.924;11.604;2023-05-24T02:40:52;7.80;99.90
4052;DHT22;2040;50.924;11.604;2023-05-24T02:43:18;7.80;99.90
4052;DHT22;2040;50.924;11.604;2023-05-24T02:45:43;7.80;99.90
4052;DHT22;2040;50.924;11.604;2023-05-24T02:48:09;7.80;99.90
4052;DHT22;2040;50.924;11.604;2023-05-24T02:50:35;7.80;99.90
4052;DHT22;2040;50.924;11.604;2023-05-24T02:53:01;7.80;99.90
4052;DHT22;2040;50.924;11.604;2023-05-24T02:55:26;7.80;99.90
4052;DHT22;2040;50.924;11.604;2023-05-24T02:57:53;7.80;99.90
4052;DHT22;2040;50.924;11.604;2023-05-24T03:00:19;7.80;99.90
4052;DHT22;2040;50.924;11.604;2023-05-24T03:02:45;7.70;99.90
4052;DHT22;2040;50.924;11.604;2023-05-24T03:05:12;7.80;99.90
4052;DHT22;2040;50.924;11.604;2023-05-24T03:07:37;7.80;99.90
4052;DHT22;2040;50.924;11.604;2023-05-24T03:10:03;7.80;99.90
4052;DHT22;2040;50.924;11.604;2023-05-24T03:12:29;7.80;99.90
4052;DHT22;2040;50.924;11.604;2023-05-24T03:14:54;7.80;99.90
4052;DHT22;2040;50.924;11.604;2023-05-24T03:17:20;7.80;99.90
4052;DHT22;2040;50.924;11.604;2023-05-24T03:19:46;7.70;99.90
4052;DHT22;2040;50.924;11.604;2023-05-24T03:22:11;7.70;99.90
4052;DHT22;2040;50.924;11.604;2023-05-24T03:24:37;7.70;99.90
4052;DHT22;2040;50.924;11.604;2023-05-24T03:27:03;7.80;99.90
4052;DHT22;2040;50.924;11.604;2023-05-24T03:29:29;7.80;99.90
4052;DHT22;2040;50.924;11.604;2023-05-24T03:31:54;7.70;99.90
4052;DHT22;2040;50.924;11.604;2023-05-24T03:34:20;7.70;99.90
4052;DHT22;2040;50.924;11.604;2023-05-24T03:36:45;7.80;99.90
4052;DHT22;2040;50.924;11.604;2023-05-24T03:39:11;7.80;99.90
4052;DHT22;2040;50.924;11.604;2023-05-24T03:41:36;7.80;99.90
4052;DHT22;2040;50.924;11.604;2023-05-24T03:44:02;7.80;99.90
4052;DHT22;2040;50.924;11.604;2023-05-24T03:46:28;7.80;99.90
4052;DHT22;2040;50.924;11.604;2023-05-24T03:48:53;7.80;99.90
4052;DHT22;2040;50.924;11.604;2023-05-24T03:51:19;7.90;99.90
4052;DHT22;2040;50.924;11.604;2023-05-24T03:53:44;7.80;99.90
4052;DHT22;2040;50.924;11.604;2023-05-24T03:56:10;7.80;99.90
4052;DHT22;2040;50.924;11.604;2023-05-24T03:58:35;7.90;99.90
4052;DHT22;2040;50.924;11.604;2023-05-24T04:01:01;7.90;99.90
4052;DHT22;2040;50.924;11.604;2023-05-24T04:03:27;7.90;99.90
4052;DHT22;2040;50.924;11.604;2023-05-24T04:05:53;8.00;99.90
4052;DHT22;2040;50.924;11.604;2023-05-24T04:08:19;8.00;99.90
4052;DHT22;2040;50.924;11.604;2023-05-24T04:10:45;8.00;99.90
4052;DHT22;2040;50.924;11.604;2023-05-24T04:13:10;8.10;99.90
4052;DHT22;2040;50.924;11.604;2023-05-24T04:15:36;8.00;99.90
4052;DHT22;2040;50.924;11.604;2023-05-24T04:18:05;8.00;99.90
4052;DHT22;2040;50.924;11.604;2023-05-24T04:20:30;8.00;99.90
4052;DHT22;2040;50.924;11.604;2023-05-24T04:22:56;7.90;99.90
4052;DHT22;2040;50.924;11.604;2023-05-24T04:25:21;7.90;99.90
4052;DHT22;2040;50.924;11.604;2023-05-24T04:27:47;7.90;99.90
4052;DHT22;2040;50.924;11.604;2023-05-24T04:30:14;8.00;99.90
4052;DHT22;2040;50.924;11.604;2023-05-24T04:32:41;7.90;99.90
4052;DHT22;2040;50.924;11.604;2023-05-24T04:35:09;7.90;99.90
4052;DHT22;2040;50.924;11.604;2023-05-24T04:37:34;8.00;99.90
4052;DHT22;2040;50.924;11.604;2023-05-24T04:40:00;8.10;99.90
4052;DHT22;2040;50.924;11.604;2023-05-24T04:42:28;8.20;99.90
4052;DHT22;2040;50.924;11.604;2023-05-24T04:44:57;8.10;99.90
4052;DHT22;2040;50.924;11.604;2023-05-24T04:47:23;8.10;99.90
4052;DHT22;2040;50.924;11.604;2023-05-24T04:49:49;8.10;99.90
4052;DHT22;2040;50.924;11.604;2023-05-24T04:52:15;8.10;99.90
4052;DHT22;2040;50.924;11.604;2023-05-24T04:54:41;8.10;99.90
4052;DHT22;2040;50.924;11.604;2023-05-24T04:57:07;8.10;99.90
4052;DHT22;2040;50.924;11.604;2023-05-24T04:59:33;8.10;99.90
4052;DHT22;2040;50.924;11.604;2023-05-24T05:01:58;8.20;99.90
4052;DHT22;2040;50.924;11.604;2023-05-24T05:04:24;8.30;99.90
4052;DHT22;2040;50.924;11.604;2023-05-24T05:06:49;8.30;99.90
4052;DHT22;2040;50.924;11.604;2023-05-24T05:09:15;8.30;99.90
4052;DHT22;2040;50.924;11.604;2023-05-24T05:11:41;8.30;99.90
4052;DHT22;2040;50.924;11.604;2023-05-24T05:14:07;8.30;99.90
4052;DHT22;2040;50.924;11.604;2023-05-24T05:16:36;8.40;99.90
4052;DHT22;2040;50.924;11.604;2023-05-24T05:19:03;8.50;99.90
4052;DHT22;2040;50.924;11.604;2023-05-24T05:21:29;8.50;99.90
4052;DHT22;2040;50.924;11.604;2023-05-24T05:23:58;8.60;99.90
4052;DHT22;2040;50.924;11.604;2023-05-24T05:26:23;8.60;99.90
4052;DHT22;2040;50.924;11.604;2023-05-24T05:28:49;8.50;99.90
4052;DHT22;2040;50.924;11.604;2023-05-24T05:31:14;8.60;99.90
4052;DHT22;2040;50.924;11.604;2023-05-24T05:33:40;8.60;99.90
4052;DHT22;2040;50.924;11.604;2023-05-24T05:36:06;8.70;99.90
4052;DHT22;2040;50.924;11.604;2023-05-24T05:38:31;8.70;99.90
4052;DHT22;2040;50.924;11.604;2023-05-24T05:40:57;8.80;99.90
4052;DHT22;2040;50.924;11.604;2023-05-24T05:43:23;8.80;99.90
4052;DHT22;2040;50.924;11.604;2023-05-24T05:45:49;8.80;99.90
4052;DHT22;2040;50.924;11.604;2023-05-24T05:48:15;8.90;99.90
4052;DHT22;2040;50.924;11.604;2023-05-24T05:50:40;9.00;99.90
4052;DHT22;2040;50.924;11.604;2023-05-24T05:53:06;9.00;99.90
4052;DHT22;2040;50.924;11.604;2023-05-24T05:55:31;9.00;99.90
4052;DHT22;2040;50.924;11.604;2023-05-24T05:57:57;9.10;99.90
4052;DHT22;2040;50.924;11.604;2023-05-24T06:00:22;9.10;99.90
4052;DHT22;2040;50.924;11.604;2023-05-24T06:02:48;9.10;99.90
4052;DHT22;2040;50.924;11.604;2023-05-24T06:05:13;9.10;99.90
4052;DHT22;2040;50.924;11.604;2023-05-24T06:07:39;9.20;99.90
4052;DHT22;2040;50.924;11.604;2023-05-24T06:10:05;9.20;99.90
4052;DHT22;2040;50.924;11.604;2023-05-24T06:12:31;9.30;99.90
4052;DHT22;2040;50.924;11.604;2023-05-24T06:14:56;9.40;99.90
4052;DHT22;2040;50.924;11.604;2023-05-24T06:17:23;9.50;99.90
4052;DHT22;2040;50.924;11.604;2023-05-24T06:19:50;9.50;99.90
4052;DHT22;2040;50.924;11.604;2023-05-24T06:22:18;9.40;99.90
4052;DHT22;2040;50.924;11.604;2023-05-24T06:24:44;9.40;99.90
4052;DHT22;2040;50.924;11.604;2023-05-24T06:27:10;9.50;99.90
4052;DHT22;2040;50.924;11.604;2023-05-24T06:29:36;9.50;99.90
4052;DHT22;2040;50.924;11.604;2023-05-24T06:32:01;9.50;99.90
4052;DHT22;2040;50.924;11.604;2023-05-24T06:34:27;9.60;99.90
4052;DHT22;2040;50.924;11.604;2023-05-24T06:36:54;9.60;99.90
4052;DHT22;2040;50.924;11.604;2023-05-24T06:39:19;9.70;99.90
4052;DHT22;2040;50.924;11.604;2023-05-24T06:41:45;9.80;99.90
4052;DHT22;2040;50.924;11.604;2023-05-24T06:44:11;9.80;99.90
4052;DHT22;2040;50.924;11.604;2023-05-24T06:46:37;9.80;99.90
4052;DHT22;2040;50.924;11.604;2023-05-24T06:49:03;9.90;99.90
4052;DHT22;2040;50.924;11.604;2023-05-24T06:51:29;10.00;99.90
4052;DHT22;2040;50.924;11.604;2023-05-24T06:53:55;10.10;99.90
4052;DHT22;2040;50.924;11.604;2023-05-24T06:56:21;10.00;99.90
4052;DHT22;2040;50.924;11.604;2023-05-24T06:58:47;10.10;99.90
4052;DHT22;2040;50.924;11.604;2023-05-24T07:01:13;10.30;99.90
4052;DHT22;2040;50.924;11.604;2023-05-24T07:03:38;10.40;99.90
4052;DHT22;2040;50.924;11.604;2023-05-24T07:06:04;10.40;99.90
4052;DHT22;2040;50.924;11.604;2023-05-24T07:08:30;10.50;99.90
4052;DHT22;2040;50.924;11.604;2023-05-24T07:10:55;10.20;99.90
4052;DHT22;2040;50.924;11.604;2023-05-24T07:13:21;10.20;99.90
4052;DHT22;2040;50.924;11.604;2023-05-24T07:15:47;10.30;99.90
4052;DHT22;2040;50.924;11.604;2023-05-24T07:18:13;10.50;99.90
4052;DHT22;2040;50.924;11.604;2023-05-24T07:20:39;10.50;99.90
4052;DHT22;2040;50.924;11.604;2023-05-24T07:23:05;10.60;99.90
4052;DHT22;2040;50.924;11.604;2023-05-24T07:25:31;10.80;99.90
4052;DHT22;2040;50.924;11.604;2023-05-24T07:27:58;10.70;99.90
4052;DHT22;2040;50.924;11.604;2023-05-24T07:30:23;10.80;99.90
4052;DHT22;2040;50.924;11.604;2023-05-24T07:32:49;10.90;99.90
4052;DHT22;2040;50.924;11.604;2023-05-24T07:35:15;11.00;99.90
4052;DHT22;2040;50.924;11.604;2023-05-24T07:37:41;10.90;99.90
4052;DHT22;2040;50.924;11.604;2023-05-24T07:40:07;11.10;99.90
4052;DHT22;2040;50.924;11.604;2023-05-24T07:42:39;10.90;99.90
4052;DHT22;2040;50.924;11.604;2023-05-24T07:45:06;10.90;99.90
4052;DHT22;2040;50.924;11.604;2023-05-24T07:47:33;11.00;99.90
4052;DHT22;2040;50.924;11.604;2023-05-24T07:49:59;11.30;99.90
4052;DHT22;2040;50.924;11.604;2023-05-24T07:52:25;11.30;99.90
4052;DHT22;2040;50.924;11.604;2023-05-24T07:54:51;11.40;99.90
4052;DHT22;2040;50.924;11.604;2023-05-24T07:57:17;11.40;99.90
4052;DHT22;2040;50.924;11.604;2023-05-24T07:59:44;11.50;99.90
4052;DHT22;2040;50.924;11.604;2023-05-24T08:02:09;11.70;99.90
4052;DHT22;2040;50.924;11.604;2023-05-24T08:04:36;11.70;99.90
4052;DHT22;2040;50.924;11.604;2023-05-24T08:07:02;11.50;99.90
4052;DHT22;2040;50.924;11.604;2023-05-24T08:09:29;11.40;99.90
4052;DHT22;2040;50.924;11.604;2023-05-24T08:11:58;11.60;99.90
4052;DHT22;2040;50.924;11.604;2023-05-24T08:14:23;11.90;99.90
4052;DHT22;2040;50.924;11.604;2023-05-24T08:16:49;12.10;99.90
4052;DHT22;2040;50.924;11.604;2023-05-24T08:19:14;11.80;99.90
4052;DHT22;2040;50.924;11.604;2023-05-24T08:21:40;11.90;99.90
4052;DHT22;2040;50.924;11.604;2023-05-24T08:24:06;12.00;99.90
4052;DHT22;2040;50.924;11.604;2023-05-24T08:26:32;12.10;99.90
4052;DHT22;2040;50.924;11.604;2023-05-24T08:28:58;12.10;99.90
4052;DHT22;2040;50.924;11.604;2023-05-24T08:31:23;12.10;99.90
4052;DHT22;2040;50.924;11.604;2023-05-24T08:33:49;12.20;99.90
4052;DHT22;2040;50.924;11.604;2023-05-24T08:36:16;12.00;99.90
4052;DHT22;2040;50.924;11.604;2023-05-24T08:38:42;11.80;99.90
4052;DHT22;2040;50.924;11.604;2023-05-24T08:41:10;11.80;99.90
4052;DHT22;2040;50.924;11.604;2023-05-24T08:43:37;11.80;99.90
4052;DHT22;2040;50.924;11.604;2023-05-24T08:46:03;12.00;99.90
4052;DHT22;2040;50.924;11.604;2023-05-24T08:48:29;12.30;99.90
4052;DHT22;2040;50.924;11.604;2023-05-24T08:50:56;12.20;99.90
4052;DHT22;2040;50.924;11.604;2023-05-24T08:53:23;12.20;99.90
4052;DHT22;2040;50.924;11.604;2023-05-24T08:55:52;12.30;99.90
4052;DHT22;2040;50.924;11.604;2023-05-24T08:58:19;12.40;99.90
4052;DHT22;2040;50.924;11.604;2023-05-24T09:00:44;12.40;99.90
4052;DHT22;2040;50.924;11.604;2023-05-24T09:03:11;12.60;99.90
4052;DHT22;2040;50.924;11.604;2023-05-24T09:05:39;12.90;99.90
4052;DHT22;2040;50.924;11.604;2023-05-24T09:08:08;12.90;99.90
4052;DHT22;2040;50.924;11.604;2023-05-24T09:10:35;12.70;99.90
4052;DHT22;2040;50.924;11.604;2023-05-24T09:13:02;12.80;99.90
4052;DHT22;2040;50.924;11.604;2023-05-24T09:15:27;13.20;99.90
4052;DHT22;2040;50.924;11.604;2023-05-24T09:17:53;13.30;99.90
4052;DHT22;2040;50.924;11.604;2023-05-24T09:20:20;13.30;99.90
4052;DHT22;2040;50.924;11.604;2023-05-24T09:22:50;13.40;99.90
4052;DHT22;2040;50.924;11.604;2023-05-24T09:25:17;13.50;99.90
4052;DHT22;2040;50.924;11.604;2023-05-24T09:27:52;13.60;99.90
4052;DHT22;2040;50.924;11.604;2023-05-24T09:30:18;13.60;99.90
4052;DHT22;2040;50.924;11.604;2023-05-24T09:32:58;13.60;99.90
4052;DHT22;2040;50.924;11.604;2023-05-24T09:35:27;13.20;99.90
4052;DHT22;2040;50.924;11.604;2023-05-24T09:37:54;13.00;99.90
4052;DHT22;2040;50.924;11.604;2023-05-24T09:40:22;12.90;99.90
4052;DHT22;2040;50.924;11.604;2023-05-24T09:42:47;12.90;99.90
4052;DHT22;2040;50.924;11.604;2023-05-24T09:45:16;13.00;99.90
4052;DHT22;2040;50.924;11.604;2023-05-24T09:47:42;13.30;99.90
4052;DHT22;2040;50.924;11.604;2023-05-24T09:50:14;13.40;99.90
4052;DHT22;2040;50.924;11.604;2023-05-24T09:52:40;13.40;99.90
4052;DHT22;2040;50.924;11.604;2023-05-24T09:55:13;13.50;99.90
4052;DHT22;2040;50.924;11.604;2023-05-24T09:57:39;13.60;99.90
4052;DHT22;2040;50.924;11.604;2023-05-24T10:00:06;13.40;99.90
4052;DHT22;2040;50.924;11.604;2023-05-24T10:02:39;13.50;99.90
4052;DHT22;2040;50.924;11.604;2023-05-24T10:05:04;13.30;99.90
4052;DHT22;2040;50.924;11.604;2023-05-24T10:07:32;13.40;99.90
4052;DHT22;2040;50.924;11.604;2023-05-24T10:09:59;13.50;99.90
4052;DHT22;2040;50.924;11.604;2023-05-24T10:12:25;13.50;99.90
4052;DHT22;2040;50.924;11.604;2023-05-24T10:14:51;13.60;99.90
4052;DHT22;2040;50.924;11.604;2023-05-24T10:17:16;14.10;99.90
4052;DHT22;2040;50.924;11.604;2023-05-24T10:19:43;14.30;99.90
4052;DHT22;2040;50.924;11.604;2023-05-24T10:22:09;14.40;99.90
4052;DHT22;2040;50.924;11.604;2023-05-24T10:24:45;14.20;99.90
4052;DHT22;2040;50.924;11.604;2023-05-24T10:27:14;14.20;99.90
4052;DHT22;2040;50.924;11.604;2023-05-24T10:32:36;14.10;99.90
4052;DHT22;2040;50.924;11.604;2023-05-24T10:35:04;14.70;99.90
4052;DHT22;2040;50.924;11.604;2023-05-24T10:37:31;15.10;99.90
4052;DHT22;2040;50.924;11.604;2023-05-24T10:39:58;15.00;99.90
4052;DHT22;2040;50.924;11.604;2023-05-24T10:42:23;14.70;99.90
4052;DHT22;2040;50.924;11.604;2023-05-24T10:44:49;14.30;99.90
4052;DHT22;2040;50.924;11.604;2023-05-24T10:47:14;14.00;99.90
4052;DHT22;2040;50.924;11.604;2023-05-24T10:49:55;14.00;99.90
4052;DHT22;2040;50.924;11.604;2023-05-24T10:52:36;14.40;99.90
4052;DHT22;2040;50.924;11.604;2023-05-24T10:55:06;14.80;99.90
4052;DHT22;2040;50.924;11.604;2023-05-24T10:57:34;15.10;99.90
4052;DHT22;2040;50.924;11.604;2023-05-24T11:02:47;15.20;99.90
4052;DHT22;2040;50.924;11.604;2023-05-24T11:05:13;15.50;99.90
4052;DHT22;2040;50.924;11.604;2023-05-24T11:07:43;16.00;99.90
4052;DHT22;2040;50.924;11.604;2023-05-24T11:10:13;16.00;99.90
4052;DHT22;2040;50.924;11.604;2023-05-24T11:12:39;16.30;99.90
4052;DHT22;2040;50.924;11.604;2023-05-24T11:15:08;16.90;99.90
4052;DHT22;2040;50.924;11.604;2023-05-24T11:20:38;16.40;99.90
4052;DHT22;2040;50.924;11.604;2023-05-24T11:23:05;16.20;99.90
4052;DHT22;2040;50.924;11.604;2023-05-24T11:25:32;16.00;99.90
4052;DHT22;2040;50.924;11.604;2023-05-24T11:27:58;15.40;99.90
4052;DHT22;2040;50.924;11.604;2023-05-24T11:30:23;15.10;99.90
4052;DHT22;2040;50.924;11.604;2023-05-24T11:32:50;15.00;99.90
4052;DHT22;2040;50.924;11.604;2023-05-24T11:35:18;15.00;99.90
4052;DHT22;2040;50.924;11.604;2023-05-24T11:37:44;15.20;99.90
4052;DHT22;2040;50.924;11.604;2023-05-24T11:40:10;15.10;99.90
4052;DHT22;2040;50.924;11.604;2023-05-24T11:42:36;15.00;99.90
4052;DHT22;2040;50.924;11.604;2023-05-24T11:45:03;15.30;99.90
4052;DHT22;2040;50.924;11.604;2023-05-24T11:47:29;15.50;99.90
4052;DHT22;2040;50.924;11.604;2023-05-24T11:49:54;16.00;99.90
4052;DHT22;2040;50.924;11.604;2023-05-24T11:52:20;16.50;99.90
4052;DHT22;2040;50.924;11.604;2023-05-24T11:54:48;16.20;99.90
4052;DHT22;2040;50.924;11.604;2023-05-24T11:57:14;16.00;99.90
4052;DHT22;2040;50.924;11.604;2023-05-24T11:59:40;16.10;99.90
4052;DHT22;2040;50.924;11.604;2023-05-24T12:02:06;15.90;99.90
4052;DHT22;2040;50.924;11.604;2023-05-24T12:04:33;15.70;99.90
4052;DHT22;2040;50.924;11.604;2023-05-24T12:06:59;15.30;99.90
4052;DHT22;2040;50.924;11.604;2023-05-24T12:09:25;15.00;99.90
4052;DHT22;2040;50.924;11.604;2023-05-24T12:11:52;15.40;99.90
4052;DHT22;2040;50.924;11.604;2023-05-24T12:14:27;16.30;99.90
4052;DHT22;2040;50.924;11.604;2023-05-24T12:16:56;17.30;99.90
4052;DHT22;2040;50.924;11.604;2023-05-24T12:19:22;17.80;99.90
4052;DHT22;2040;50.924;11.604;2023-05-24T12:21:54;17.90;99.90
4052;DHT22;2040;50.924;11.604;2023-05-24T12:24:22;18.10;99.90
4052;DHT22;2040;50.924;11.604;2023-05-24T12:26:48;18.00;99.90
4052;DHT22;2040;50.924;11.604;2023-05-24T12:29:14;17.80;99.90
4052;DHT22;2040;50.924;11.604;2023-05-24T12:31:46;17.40;99.90
4052;DHT22;2040;50.924;11.604;2023-05-24T12:34:14;16.90;99.90
4052;DHT22;2040;50.924;11.604;2023-05-24T12:36:40;16.50;99.90
4052;DHT22;2040;50.924;11.604;2023-05-24T12:41:53;16.20;99.90
4052;DHT22;2040;50.924;11.604;2023-05-24T12:44:28;16.50;99.90
4052;DHT22;2040;50.924;11.604;2023-05-24T12:46:55;16.90;99.90
4052;DHT22;2040;50.924;11.604;2023-05-24T12:49:21;16.90;99.90
4052;DHT22;2040;50.924;11.604;2023-05-24T12:51:47;16.50;99.90
4052;DHT22;2040;50.924;11.604;2023-05-24T12:54:13;16.00;99.90
4052;DHT22;2040;50.924;11.604;2023-05-24T12:56:38;15.70;99.90
4052;DHT22;2040;50.924;11.604;2023-05-24T12:59:04;15.50;99.90
4052;DHT22;2040;50.924;11.604;2023-05-24T13:01:30;15.70;99.90
4052;DHT22;2040;50.924;11.604;2023-05-24T13:03:55;15.80;99.90
4052;DHT22;2040;50.924;11.604;2023-05-24T13:06:21;15.90;99.90
4052;DHT22;2040;50.924;11.604;2023-05-24T13:08:47;15.80;99.90
4052;DHT22;2040;50.924;11.604;2023-05-24T13:11:13;15.90;99.90
4052;DHT22;2040;50.924;11.604;2023-05-24T13:13:38;16.00;99.90
4052;DHT22;2040;50.924;11.604;2023-05-24T13:16:04;16.60;99.90
4052;DHT22;2040;50.924;11.604;2023-05-24T13:18:32;17.40;99.90
4052;DHT22;2040;50.924;11.604;2023-05-24T13:20:58;17.30;99.90
4052;DHT22;2040;50.924;11.604;2023-05-24T13:23:25;17.10;99.90
4052;DHT22;2040;50.924;11.604;2023-05-24T13:25:51;17.40;99.90
4052;DHT22;2040;50.924;11.604;2023-05-24T13:28:18;18.00;99.90
4052;DHT22;2040;50.924;11.604;2023-05-24T13:30:45;18.00;99.90
4052;DHT22;2040;50.924;11.604;2023-05-24T13:33:10;18.10;99.90
4052;DHT22;2040;50.924;11.604;2023-05-24T13:35:36;18.40;99.90
4052;DHT22;2040;50.924;11.604;2023-05-24T13:38:01;18.80;99.90
4052;DHT22;2040;50.924;11.604;2023-05-24T13:40:27;19.00;99.90
4052;DHT22;2040;50.924;11.604;2023-05-24T13:42:55;18.90;99.90
4052;DHT22;2040;50.924;11.604;2023-05-24T13:45:21;18.30;99.90
4052;DHT22;2040;50.924;11.604;2023-05-24T13:47:47;18.00;99.90
4052;DHT22;2040;50.924;11.604;2023-05-24T13:50:12;17.20;99.90
4052;DHT22;2040;50.924;11.604;2023-05-24T13:52:38;17.10;99.90
4052;DHT22;2040;50.924;11.604;2023-05-24T13:55:04;17.10;99.90
4052;DHT22;2040;50.924;11.604;2023-05-24T13:57:30;17.10;99.90
4052;DHT22;2040;50.924;11.604;2023-05-24T13:59:58;16.90;99.90
4052;DHT22;2040;50.924;11.604;2023-05-24T14:02:23;16.50;99.90
4052;DHT22;2040;50.924;11.604;2023-05-24T14:04:49;16.50;99.90
4052;DHT22;2040;50.924;11.604;2023-05-24T14:07:14;16.60;99.90
4052;DHT22;2040;50.924;11.604;2023-05-24T14:09:40;16.80;99.90
4052;DHT22;2040;50.924;11.604;2023-05-24T14:12:06;16.80;99.90
4052;DHT22;2040;50.924;11.604;2023-05-24T14:14:33;16.90;99.90
4052;DHT22;2040;50.924;11.604;2023-05-24T14:16:58;17.00;99.90
4052;DHT22;2040;50.924;11.604;2023-05-24T14:19:24;17.60;99.90
4052;DHT22;2040;50.924;11.604;2023-05-24T14:21:49;17.80;99.90
4052;DHT22;2040;50.924;11.604;2023-05-24T14:24:15;17.90;99.90
4052;DHT22;2040;50.924;11.604;2023-05-24T14:26:41;18.30;99.90
4052;DHT22;2040;50.924;11.604;2023-05-24T14:29:07;18.50;99.90
4052;DHT22;2040;50.924;11.604;2023-05-24T14:31:33;18.60;99.90
4052;DHT22;2040;50.924;11.604;2023-05-24T14:34:06;18.80;99.90
4052;DHT22;2040;50.924;11.604;2023-05-24T14:36:31;18.70;99.90
4052;DHT22;2040;50.924;11.604;2023-05-24T14:38:58;18.50;99.90
4052;DHT22;2040;50.924;11.604;2023-05-24T14:41:23;18.30;99.90
4052;DHT22;2040;50.924;11.604;2023-05-24T14:43:49;18.40;99.90
4052;DHT22;2040;50.924;11.604;2023-05-24T14:46:15;18.40;99.90
4052;DHT22;2040;50.924;11.604;2023-05-24T14:48:41;18.70;99.90
4052;DHT22;2040;50.924;11.604;2023-05-24T14:51:06;18.80;99.90
4052;DHT22;2040;50.924;11.604;2023-05-24T14:53:32;18.80;99.90
4052;DHT22;2040;50.924;11.604;2023-05-24T14:55:57;18.90;99.90
4052;DHT22;2040;50.924;11.604;2023-05-24T14:58:23;18.90;99.90
4052;DHT22;2040;50.924;11.604;2023-05-24T15:00:49;19.10;99.90
4052;DHT22;2040;50.924;11.604;2023-05-24T15:03:15;19.30;99.90
4052;DHT22;2040;50.924;11.604;2023-05-24T15:05:40;19.10;99.90
4052;DHT22;2040;50.924;11.604;2023-05-24T15:08:07;18.70;99.90
4052;DHT22;2040;50.924;11.604;2023-05-24T15:10:33;18.10;99.90
4052;DHT22;2040;50.924;11.604;2023-05-24T15:12:59;17.70;99.90
4052;DHT22;2040;50.924;11.604;2023-05-24T15:15:25;17.90;99.90
4052;DHT22;2040;50.924;11.604;2023-05-24T15:17:51;18.00;99.90
4052;DHT22;2040;50.924;11.604;2023-05-24T15:20:16;17.90;99.90
4052;DHT22;2040;50.924;11.604;2023-05-24T15:22:42;18.00;99.90
4052;DHT22;2040;50.924;11.604;2023-05-24T15:25:08;17.80;99.90
4052;DHT22;2040;50.924;11.604;2023-05-24T15:27:34;17.90;99.90
4052;DHT22;2040;50.924;11.604;2023-05-24T15:29:59;18.30;99.90
4052;DHT22;2040;50.924;11.604;2023-05-24T15:32:25;18.40;99.90
4052;DHT22;2040;50.924;11.604;2023-05-24T15:34:50;18.60;99.90
4052;DHT22;2040;50.924;11.604;2023-05-24T15:37:16;18.40;99.90
4052;DHT22;2040;50.924;11.604;2023-05-24T15:39:44;18.50;99.90
4052;DHT22;2040;50.924;11.604;2023-05-24T15:42:09;18.60;99.90
4052;DHT22;2040;50.924;11.604;2023-05-24T15:44:35;18.20;99.90
4052;DHT22;2040;50.924;11.604;2023-05-24T15:47:00;18.40;99.90
4052;DHT22;2040;50.924;11.604;2023-05-24T15:49:26;18.20;99.90
4052;DHT22;2040;50.924;11.604;2023-05-24T15:51:52;18.10;99.90
4052;DHT22;2040;50.924;11.604;2023-05-24T15:54:18;17.90;99.90
4052;DHT22;2040;50.924;11.604;2023-05-24T15:56:43;17.80;99.90
4052;DHT22;2040;50.924;11.604;2023-05-24T15:59:09;17.40;99.90
4052;DHT22;2040;50.924;11.604;2023-05-24T16:01:35;17.30;99.90
4052;DHT22;2040;50.924;11.604;2023-05-24T16:04:01;17.20;99.90
4052;DHT22;2040;50.924;11.604;2023-05-24T16:06:27;16.70;99.90